ilmateenistus.ee keskkonnaagentuur.ee
EETN Tallinn
FTEO31 EETN 271700
TAF EETN 271700Z 2718/2818 11012KT CAVOK PROB40 TEMPO 2722/2801
    SCT025CB BECMG 2801/2802 SCT015 BKN025CB TEMPO 2802/2807 3000 TSRA
    BKN007 BKN020CB TEMPO 2807/2815 4000 SHRA PROB40 TEMPO 2808/2815
    VRB22KT TSRA=

METAR EETN 271850Z VRB02KT 9000 NSC 24/15 Q1012 NOSIG=
Tallinn
EEKA Kärdla
METAR EEKA 271850Z NIL=
Kärdla
EEKE Kuressaare
FCEO32 EETN 271400 AAA
TAF AMD EEKE 271800Z 2715/2721 CNL=

SPECI EEKE 271858Z AUTO 05008KT 2400NDV +RA FEW008 BKN039 20/19 Q1009=
Kuressaare
EEPU Pärnu
METAR EEPU 271850Z NIL=
Pärnu
EETU Tartu
METAR EETU 271850Z AUTO 10006KT 9999 BKN100/// 21/18 Q1012=
Tartu
EEEI Ämari
METAR EEEI 271850Z AUTO 07004KT 9999 FEW100/// OVC150/// 23/16 Q1011=
Ämari